METAR Data

Data at: 0530 UTC 28 Sep 2022

METAR for:KSFM (Sanford Rgnl, ME, US)
Text:KSFM 280456Z AUTO 21004KT 10SM CLR 09/08 A2989 RMK AO2 SLP123 T00890078
Temperature: 8.9°C ( 48°F)
Dewpoint: 7.8°C ( 46°F) [RH = 93%]
Pressure (altimeter):29.89 inches Hg (1012.3 mb) [Sea level pressure: 1012.3 mb]
Winds:from the SSW (210 degrees) at 5 MPH (4 knots; 2.1 m/s)
Visibility:10 or more sm (16+ km)
Ceiling:at least 12,000 feet AGL
Clouds:sky clear below 12,000 feet AGL
QC Flag:automated observation with no human augmentation